createdAt,value
2023-02-17T00:01:22.548Z,8.05
2023-02-17T00:03:50.368Z,9.15
2023-02-17T00:06:19.472Z,8.23
2023-02-17T00:08:46.577Z,8.25
2023-02-17T00:11:13.822Z,8.98
2023-02-17T00:13:40.479Z,8.30
2023-02-17T00:16:13.752Z,9.27
2023-02-17T00:18:40.240Z,10.43
2023-02-17T00:21:18.913Z,10.15
2023-02-17T00:23:46.539Z,11.05
2023-02-17T00:26:13.635Z,10.43
2023-02-17T00:28:41.028Z,10.75
2023-02-17T00:31:14.601Z,10.73
2023-02-17T00:33:41.222Z,8.95
2023-02-17T00:36:17.740Z,10.40
2023-02-17T00:38:44.950Z,10.43
2023-02-17T00:41:11.600Z,9.95
2023-02-17T00:43:38.035Z,10.93
2023-02-17T00:46:05.185Z,10.75
2023-02-17T00:48:32.394Z,8.52
2023-02-17T00:50:59.218Z,10.80
2023-02-17T00:53:25.697Z,10.43
2023-02-17T00:55:52.395Z,10.23
2023-02-17T00:58:18.875Z,9.73
2023-02-17T01:00:45.705Z,11.32
2023-02-17T01:03:12.356Z,9.48
2023-02-17T01:05:43.944Z,9.82
2023-02-17T01:08:11.391Z,9.23
2023-02-17T01:10:42.702Z,9.65
2023-02-17T01:13:16.414Z,9.20
2023-02-17T01:15:52.612Z,6.32
2023-02-17T01:18:21.891Z,10.10
2023-02-17T01:20:48.541Z,9.70
2023-02-17T01:23:15.277Z,9.65
2023-02-17T01:25:45.091Z,10.50
2023-02-17T01:28:16.872Z,9.85
2023-02-17T01:30:43.440Z,10.40
2023-02-17T01:33:10.035Z,10.37
2023-02-17T01:35:36.522Z,8.77
2023-02-17T01:38:03.016Z,9.93
2023-02-17T01:40:30.299Z,8.70
2023-02-17T01:42:56.906Z,10.65
2023-02-17T01:45:23.293Z,7.13
2023-02-17T01:48:01.208Z,9.32
2023-02-17T01:50:34.755Z,7.78
2023-02-17T01:53:03.344Z,8.82
2023-02-17T01:55:31.188Z,8.80
2023-02-17T01:58:03.439Z,9.77
2023-02-17T02:00:33.455Z,8.77
2023-02-17T02:03:02.242Z,8.43
2023-02-17T02:05:35.485Z,7.63
2023-02-17T02:08:04.085Z,6.90
2023-02-17T02:10:30.765Z,9.40
2023-02-17T02:12:57.352Z,7.22
2023-02-17T02:15:27.009Z,9.48
2023-02-17T02:18:02.546Z,8.65
2023-02-17T02:20:47.672Z,8.23
2023-02-17T02:23:39.211Z,8.13
2023-02-17T02:26:36.984Z,9.00
2023-02-17T02:29:50.272Z,7.97
2023-02-17T02:32:39.477Z,7.13
2023-02-17T02:35:13.598Z,6.95
2023-02-17T02:37:50.428Z,8.07
2023-02-17T02:40:23.662Z,7.38
2023-02-17T02:42:50.990Z,7.80
2023-02-17T02:45:19.066Z,7.35
2023-02-17T02:47:58.563Z,6.82
2023-02-17T02:50:49.619Z,8.13
2023-02-17T02:53:57.819Z,5.82
2023-02-17T02:56:49.091Z,6.18
2023-02-17T02:59:40.279Z,7.18
2023-02-17T03:02:09.618Z,6.85
2023-02-17T03:04:48.565Z,7.43
2023-02-17T03:07:24.370Z,6.25
2023-02-17T03:09:53.883Z,7.43
2023-02-17T03:12:21.736Z,7.28
2023-02-17T03:14:52.195Z,8.07
2023-02-17T03:17:18.662Z,7.83
2023-02-17T03:19:48.528Z,7.65
2023-02-17T03:22:22.852Z,8.20
2023-02-17T03:24:49.777Z,6.50
2023-02-17T03:27:16.401Z,4.80
2023-02-17T03:29:43.322Z,6.00
2023-02-17T03:32:10.157Z,7.60
2023-02-17T03:34:36.649Z,8.23
2023-02-17T03:37:03.255Z,8.02
2023-02-17T03:39:30.110Z,7.47
2023-02-17T03:41:56.677Z,9.20
2023-02-17T03:44:23.100Z,9.30
2023-02-17T03:46:49.870Z,8.18
2023-02-17T03:49:16.369Z,9.48
2023-02-17T03:51:42.786Z,9.48
2023-02-17T03:54:09.180Z,8.77
2023-02-17T03:56:35.651Z,10.48
2023-02-17T03:59:02.157Z,10.63
2023-02-17T04:01:28.778Z,11.07
2023-02-17T04:03:55.443Z,10.40
2023-02-17T04:06:22.056Z,10.50
2023-02-17T04:08:48.532Z,11.05
2023-02-17T04:11:15.011Z,10.40
2023-02-17T04:13:41.465Z,9.80
2023-02-17T04:16:10.043Z,11.60
2023-02-17T04:18:36.640Z,11.07
2023-02-17T04:21:03.993Z,10.02
2023-02-17T04:23:30.448Z,10.25
2023-02-17T04:25:56.996Z,10.15
2023-02-17T04:28:23.569Z,9.65
2023-02-17T04:30:51.251Z,9.20
2023-02-17T04:33:18.118Z,8.52
2023-02-17T04:35:44.681Z,8.82
2023-02-17T04:38:11.679Z,9.98
2023-02-17T04:40:38.509Z,9.63
2023-02-17T04:43:05.514Z,9.83
2023-02-17T04:45:32.455Z,9.68
2023-02-17T04:47:59.030Z,8.07
2023-02-17T04:50:25.485Z,7.97
2023-02-17T04:52:53.579Z,8.15
2023-02-17T04:55:19.992Z,7.23
2023-02-17T04:57:46.572Z,7.85
2023-02-17T05:00:13.522Z,7.10
2023-02-17T05:02:45.438Z,9.27
2023-02-17T05:05:15.468Z,10.25
2023-02-17T05:07:42.982Z,8.57
2023-02-17T05:10:09.709Z,8.90
2023-02-17T05:12:36.262Z,9.60
2023-02-17T05:15:03.659Z,7.82
2023-02-17T05:17:30.125Z,8.63
2023-02-17T05:19:56.713Z,9.77
2023-02-17T05:22:23.090Z,7.85
2023-02-17T05:24:49.464Z,7.90
2023-02-17T05:27:15.920Z,8.88
2023-02-17T05:29:42.466Z,9.93
2023-02-17T05:32:09.012Z,9.03
2023-02-17T05:34:36.144Z,9.83
2023-02-17T05:37:02.656Z,11.05
2023-02-17T05:39:35.748Z,8.93
2023-02-17T05:42:02.302Z,10.98
2023-02-17T05:44:35.030Z,9.83
2023-02-17T05:47:01.736Z,11.38
2023-02-17T05:49:28.241Z,9.02
2023-02-17T05:51:54.700Z,9.88
2023-02-17T05:54:38.975Z,8.23
2023-02-17T05:57:05.588Z,8.03
2023-02-17T05:59:32.006Z,9.00
2023-02-17T06:01:58.605Z,10.07
2023-02-17T06:04:25.102Z,9.48
2023-02-17T06:06:52.524Z,10.38
2023-02-17T06:09:19.054Z,10.20
2023-02-17T06:11:45.500Z,9.55
2023-02-17T06:14:12.065Z,8.88
2023-02-17T06:16:38.533Z,10.93
2023-02-17T06:19:06.229Z,10.75
2023-02-17T06:21:32.942Z,10.93
2023-02-17T06:23:59.516Z,7.22
2023-02-17T06:26:26.205Z,9.95
2023-02-17T06:28:52.687Z,10.40
2023-02-17T06:31:19.388Z,8.82
2023-02-17T06:33:45.924Z,9.70
2023-02-17T06:36:12.337Z,6.70
2023-02-17T06:38:38.892Z,9.93
2023-02-17T06:41:05.520Z,10.00
2023-02-17T06:43:32.064Z,8.25
2023-02-17T06:45:58.742Z,7.03
2023-02-17T06:48:25.329Z,9.93
2023-02-17T06:50:51.867Z,9.10
2023-02-17T06:53:18.373Z,8.63
2023-02-17T06:55:45.240Z,7.95
2023-02-17T06:58:11.877Z,8.40
2023-02-17T07:00:38.738Z,8.52
2023-02-17T07:03:05.507Z,9.02
2023-02-17T07:05:35.239Z,7.70
2023-02-17T07:08:01.810Z,8.45
2023-02-17T07:10:28.378Z,9.33
2023-02-17T07:12:54.809Z,8.45
2023-02-17T07:15:24.146Z,8.50
2023-02-17T07:17:50.747Z,7.18
2023-02-17T07:20:17.444Z,6.55
2023-02-17T07:22:44.022Z,8.87
2023-02-17T07:25:10.608Z,6.75
2023-02-17T07:27:37.302Z,7.70
2023-02-17T07:30:04.620Z,6.72
2023-02-17T07:32:31.376Z,7.15
2023-02-17T07:34:57.752Z,5.63
2023-02-17T07:37:24.319Z,6.80
2023-02-17T07:39:52.391Z,6.93
2023-02-17T07:42:18.785Z,7.25
2023-02-17T07:44:45.167Z,5.55
2023-02-17T07:47:11.622Z,6.37
2023-02-17T07:49:38.190Z,6.07
2023-02-17T07:52:05.428Z,5.47
2023-02-17T07:54:31.928Z,6.63
2023-02-17T07:56:58.352Z,6.18
2023-02-17T07:59:24.895Z,5.73
2023-02-17T08:01:51.391Z,4.90
2023-02-17T08:04:18.170Z,5.80
2023-02-17T08:06:44.599Z,6.75
2023-02-17T08:09:30.451Z,5.90
2023-02-17T08:12:15.421Z,5.73
2023-02-17T08:14:42.111Z,5.82
2023-02-17T08:17:31.323Z,5.28
2023-02-17T08:19:56.007Z,5.90
2023-02-17T08:22:22.567Z,6.78
2023-02-17T08:24:49.194Z,5.07
2023-02-17T08:27:15.868Z,6.40
2023-02-17T08:32:22.958Z,6.35
2023-02-17T08:34:49.697Z,6.78
2023-02-17T08:37:16.240Z,6.07
2023-02-17T08:39:42.696Z,4.38
2023-02-17T08:42:09.094Z,6.25
2023-02-17T08:44:36.490Z,4.13
2023-02-17T08:47:05.558Z,6.35
2023-02-17T08:49:32.725Z,4.80
2023-02-17T08:52:07.393Z,5.88
2023-02-17T08:54:33.990Z,5.60
2023-02-17T08:57:00.557Z,6.80
2023-02-17T08:59:27.099Z,5.35
2023-02-17T09:01:53.700Z,6.10
2023-02-17T09:04:20.442Z,5.72
2023-02-17T09:06:52.595Z,5.97
2023-02-17T09:09:22.637Z,6.43
2023-02-17T09:11:49.252Z,5.32
2023-02-17T09:14:15.878Z,4.50
2023-02-17T09:16:42.353Z,5.47
2023-02-17T09:19:09.030Z,5.43
2023-02-17T09:21:35.680Z,6.28
2023-02-17T09:24:02.118Z,6.05
2023-02-17T09:26:28.752Z,5.53
2023-02-17T09:28:55.138Z,5.57
2023-02-17T09:31:25.735Z,4.75
2023-02-17T09:33:52.481Z,4.68
2023-02-17T09:36:31.226Z,5.18
2023-02-17T09:38:58.436Z,4.83
2023-02-17T09:41:39.610Z,4.35
2023-02-17T09:44:13.906Z,5.47
2023-02-17T09:47:02.060Z,5.40
2023-02-17T09:49:41.632Z,4.97
2023-02-17T09:52:16.894Z,4.60
2023-02-17T09:54:59.549Z,3.38
2023-02-17T09:57:29.575Z,4.72
2023-02-17T10:00:02.793Z,4.03
2023-02-17T10:02:39.941Z,3.42
2023-02-17T10:05:11.390Z,3.73
2023-02-17T10:07:53.288Z,4.85
2023-02-17T10:10:25.491Z,4.10
2023-02-17T10:12:56.195Z,4.38
2023-02-17T10:15:30.752Z,3.58
2023-02-17T10:18:05.827Z,3.40
2023-02-17T10:20:36.221Z,1.90
2023-02-17T10:23:22.949Z,3.33
2023-02-17T10:26:28.189Z,3.65
2023-02-17T10:29:17.142Z,3.53
2023-02-17T10:31:52.930Z,3.77
2023-02-17T10:34:35.844Z,3.42
2023-02-17T10:37:18.581Z,2.95
2023-02-17T10:39:54.480Z,4.00
2023-02-17T10:42:39.032Z,4.05
2023-02-17T10:45:21.202Z,4.03
2023-02-17T10:47:48.007Z,3.25
2023-02-17T10:50:21.669Z,3.67
2023-02-17T10:52:50.124Z,3.75
2023-02-17T10:55:23.660Z,2.97
2023-02-17T10:58:01.012Z,3.17
2023-02-17T11:00:27.737Z,3.47
2023-02-17T11:02:54.305Z,3.55
2023-02-17T11:05:28.967Z,3.47
2023-02-17T11:07:59.722Z,3.50
2023-02-17T11:10:33.177Z,3.50
2023-02-17T11:13:02.581Z,3.50
2023-02-17T11:15:43.445Z,3.83
2023-02-17T11:18:18.082Z,3.75
2023-02-17T11:20:44.956Z,3.38
2023-02-17T11:23:14.249Z,2.47
2023-02-17T11:25:42.345Z,3.05
2023-02-17T11:28:24.134Z,3.10
2023-02-17T11:30:54.726Z,4.10
2023-02-17T11:33:28.685Z,4.18
2023-02-17T11:35:56.379Z,3.53
2023-02-17T11:38:29.600Z,3.90
2023-02-17T11:41:00.546Z,4.32
2023-02-17T11:43:29.130Z,3.55
2023-02-17T11:46:05.059Z,3.15
2023-02-17T11:48:49.984Z,4.57
2023-02-17T11:51:39.253Z,3.30
2023-02-17T11:54:23.194Z,4.13
2023-02-17T11:57:04.057Z,3.85
2023-02-17T11:59:35.748Z,3.78
2023-02-17T12:02:15.089Z,2.70
2023-02-17T12:05:06.408Z,3.72
2023-02-17T12:07:58.766Z,3.47
2023-02-17T12:11:01.702Z,2.90
2023-02-17T12:13:38.733Z,2.97
2023-02-17T12:16:27.164Z,4.37
2023-02-17T12:19:40.152Z,4.13
2023-02-17T12:22:24.665Z,3.28
2023-02-17T12:25:10.224Z,4.57
2023-02-17T12:27:49.811Z,3.80
2023-02-17T12:30:47.107Z,5.37
2023-02-17T12:33:31.130Z,4.93
2023-02-17T12:36:19.366Z,5.10
2023-02-17T12:39:01.371Z,3.97
2023-02-17T12:41:36.245Z,3.85
2023-02-17T12:44:42.622Z,4.67
2023-02-17T12:47:15.985Z,3.78
2023-02-17T12:49:55.420Z,5.28
2023-02-17T12:52:28.115Z,2.40
2023-02-17T12:55:10.281Z,4.60
2023-02-17T12:57:58.208Z,4.03
2023-02-17T13:00:34.998Z,3.40
2023-02-17T13:03:03.539Z,4.10
2023-02-17T13:05:59.157Z,3.83
2023-02-17T13:08:36.294Z,3.55
2023-02-17T13:11:05.868Z,2.63
2023-02-17T13:13:34.677Z,3.58
2023-02-17T13:16:13.488Z,3.50
2023-02-17T13:18:50.353Z,3.30
2023-02-17T13:21:20.493Z,2.50
2023-02-17T13:24:02.985Z,2.97
2023-02-17T13:26:35.061Z,2.28
2023-02-17T13:29:19.917Z,2.38
2023-02-17T13:31:49.989Z,2.53
2023-02-17T13:34:25.356Z,2.78
2023-02-17T13:36:52.188Z,2.80
2023-02-17T13:39:27.871Z,2.25
2023-02-17T13:42:01.923Z,1.92
2023-02-17T13:44:28.927Z,1.80
2023-02-17T13:47:00.851Z,2.00
2023-02-17T13:49:32.975Z,2.33
2023-02-17T13:52:22.113Z,2.80
2023-02-17T13:54:55.977Z,2.13
2023-02-17T13:57:30.738Z,2.08
2023-02-17T14:00:09.716Z,2.00
2023-02-17T14:02:45.224Z,2.27
2023-02-17T14:05:27.658Z,2.25
2023-02-17T14:08:03.401Z,1.95
2023-02-17T14:10:30.418Z,2.08
2023-02-17T14:13:01.089Z,2.00
2023-02-17T14:15:29.403Z,2.20
2023-02-17T14:17:56.453Z,1.92
2023-02-17T14:20:35.160Z,1.90
2023-02-17T14:23:11.586Z,1.85
2023-02-17T14:25:41.749Z,1.38
2023-02-17T14:28:25.697Z,1.90
2023-02-17T14:30:52.990Z,2.05
2023-02-17T14:33:25.503Z,2.22
2023-02-17T14:36:01.768Z,2.10
2023-02-17T14:38:56.160Z,1.90
2023-02-17T14:41:22.542Z,2.37
2023-02-17T14:43:49.267Z,1.45
2023-02-17T14:46:27.005Z,1.50
2023-02-17T14:48:54.924Z,1.85
2023-02-17T14:51:53.888Z,1.90
2023-02-17T14:54:25.966Z,2.07
2023-02-17T14:57:19.670Z,1.63
2023-02-17T14:59:47.917Z,2.13
2023-02-17T15:02:17.860Z,2.25
2023-02-17T15:04:44.501Z,1.77
2023-02-17T15:10:28.104Z,1.52
2023-02-17T15:12:55.270Z,1.80
2023-02-17T15:15:21.940Z,1.73
2023-02-17T15:17:48.868Z,1.70
2023-02-17T15:20:16.684Z,1.03
2023-02-17T15:22:44.635Z,1.73
2023-02-17T15:25:19.466Z,1.67
2023-02-17T15:27:46.635Z,1.60
2023-02-17T15:30:18.863Z,1.77
2023-02-17T15:32:46.332Z,1.80
2023-02-17T15:35:21.729Z,1.48
2023-02-17T15:37:48.768Z,1.60
2023-02-17T15:40:22.463Z,2.00
2023-02-17T15:42:54.853Z,1.85
2023-02-17T15:45:23.266Z,1.60
2023-02-17T15:47:52.454Z,1.73
2023-02-17T15:50:23.067Z,2.10
2023-02-17T15:52:50.942Z,2.08
2023-02-17T15:55:23.608Z,1.55
2023-02-17T15:57:54.678Z,1.60
2023-02-17T16:00:32.020Z,1.52
2023-02-17T16:02:58.811Z,1.50
2023-02-17T16:05:28.304Z,1.33
2023-02-17T16:07:57.657Z,1.30
2023-02-17T16:10:27.211Z,1.70
2023-02-17T16:12:57.021Z,2.17
2023-02-17T16:15:43.957Z,1.48
2023-02-17T16:18:20.070Z,1.33
2023-02-17T16:20:47.362Z,1.27
2023-02-17T16:23:15.109Z,2.00
2023-02-17T16:25:43.952Z,1.80
2023-02-17T16:28:19.843Z,1.45
2023-02-17T16:30:49.346Z,2.08
2023-02-17T16:33:17.134Z,1.90
2023-02-17T16:35:44.168Z,1.80
2023-02-17T16:38:22.724Z,1.55
2023-02-17T16:40:51.784Z,2.35
2023-02-17T16:43:21.767Z,1.88
2023-02-17T16:45:57.010Z,3.10
2023-02-17T16:48:25.399Z,3.10
2023-02-17T16:50:52.197Z,3.47
2023-02-17T16:53:18.784Z,3.22
2023-02-17T16:55:45.627Z,3.90
2023-02-17T16:58:26.812Z,3.25
2023-02-17T17:00:55.916Z,3.60
2023-02-17T17:03:34.624Z,3.10
2023-02-17T17:06:01.923Z,3.13
2023-02-17T17:08:28.382Z,4.00
2023-02-17T17:10:54.753Z,3.97
2023-02-17T17:13:40.392Z,3.90
2023-02-17T17:16:31.756Z,4.07
2023-02-17T17:18:59.213Z,3.38
2023-02-17T17:21:25.771Z,3.80
2023-02-17T17:23:52.398Z,3.97
2023-02-17T17:26:33.416Z,4.27
2023-02-17T17:29:00.396Z,3.70
2023-02-17T17:31:28.240Z,3.80
2023-02-17T17:33:55.403Z,4.63
2023-02-17T17:36:28.306Z,4.25
2023-02-17T17:38:55.640Z,3.70
2023-02-17T17:41:23.326Z,3.97
2023-02-17T17:43:51.535Z,4.00
2023-02-17T17:46:21.614Z,3.83
2023-02-17T17:48:48.551Z,4.28
2023-02-17T17:51:18.583Z,4.63
2023-02-17T17:53:49.111Z,3.80
2023-02-17T17:56:20.149Z,3.85
2023-02-17T17:58:47.333Z,4.00
2023-02-17T18:01:15.404Z,3.05
2023-02-17T18:03:43.707Z,2.57
2023-02-17T18:06:15.659Z,2.60
2023-02-17T18:08:43.982Z,2.83
2023-02-17T18:11:11.628Z,2.83
2023-02-17T18:13:39.600Z,2.42
2023-02-17T18:16:06.679Z,3.00
2023-02-17T18:18:33.778Z,2.75
2023-02-17T18:21:00.164Z,2.38
2023-02-17T18:23:26.804Z,2.88
2023-02-17T18:25:53.274Z,2.85
2023-02-17T18:28:19.904Z,3.47
2023-02-17T18:30:46.599Z,3.88
2023-02-17T18:33:14.461Z,3.25
2023-02-17T18:35:43.356Z,3.47
2023-02-17T18:38:09.728Z,3.97
2023-02-17T18:40:41.664Z,4.33
2023-02-17T18:43:09.281Z,3.80
2023-02-17T18:45:36.378Z,3.15
2023-02-17T18:48:02.994Z,4.15
2023-02-17T18:50:33.183Z,4.18
2023-02-17T18:53:00.208Z,3.90
2023-02-17T18:55:26.819Z,3.75
2023-02-17T18:57:54.101Z,3.10
2023-02-17T19:00:20.902Z,3.70
2023-02-17T19:02:47.638Z,3.30
2023-02-17T19:05:14.796Z,3.53
2023-02-17T19:07:41.180Z,3.20
2023-02-17T19:10:08.313Z,3.03
2023-02-17T19:12:35.243Z,3.00
2023-02-17T19:15:02.005Z,2.90
2023-02-17T19:17:28.660Z,3.43
2023-02-17T19:19:55.091Z,2.17
2023-02-17T19:22:21.521Z,2.70
2023-02-17T19:24:52.322Z,3.20
2023-02-17T19:27:19.094Z,2.47
2023-02-17T19:29:48.813Z,2.67
2023-02-17T19:32:15.507Z,3.25
2023-02-17T19:34:41.996Z,3.70
2023-02-17T19:37:08.696Z,2.47
2023-02-17T19:39:36.013Z,3.30
2023-02-17T19:42:03.270Z,3.20
2023-02-17T19:44:31.448Z,3.17
2023-02-17T19:46:58.468Z,3.33
2023-02-17T19:49:25.030Z,2.70
2023-02-17T19:52:06.490Z,3.17
2023-02-17T19:54:33.689Z,3.30
2023-02-17T19:57:00.109Z,3.67
2023-02-17T19:59:26.505Z,3.35
2023-02-17T20:01:53.075Z,3.65
2023-02-17T20:04:20.239Z,3.35
2023-02-17T20:06:48.287Z,3.50
2023-02-17T20:09:18.423Z,3.40
2023-02-17T20:11:46.772Z,4.00
2023-02-17T20:14:13.695Z,3.50
2023-02-17T20:16:40.712Z,3.80
2023-02-17T20:19:07.400Z,3.97
2023-02-17T20:21:36.283Z,4.00
2023-02-17T20:24:02.711Z,4.05
2023-02-17T20:26:40.026Z,4.45
2023-02-17T20:29:06.948Z,3.83
2023-02-17T20:31:36.014Z,3.60
2023-02-17T20:34:08.633Z,4.60
2023-02-17T20:36:35.203Z,3.95
2023-02-17T20:39:01.833Z,4.78
2023-02-17T20:41:28.449Z,4.20
2023-02-17T20:43:54.907Z,5.27
2023-02-17T20:46:28.093Z,5.00
2023-02-17T20:48:55.543Z,4.60
2023-02-17T20:51:22.680Z,5.43
2023-02-17T20:53:49.676Z,5.28
2023-02-17T20:56:19.874Z,4.77
2023-02-17T20:58:47.217Z,4.85
2023-02-17T21:01:14.271Z,4.28
2023-02-17T21:03:40.817Z,5.70
2023-02-17T21:06:28.425Z,4.97
2023-02-17T21:08:57.860Z,4.40
2023-02-17T21:11:24.538Z,4.97
2023-02-17T21:13:51.395Z,4.13
2023-02-17T21:16:21.431Z,4.80
2023-02-17T21:18:48.021Z,4.40
2023-02-17T21:21:15.419Z,4.37
2023-02-17T21:23:42.331Z,4.43
2023-02-17T21:26:11.421Z,5.10
2023-02-17T21:28:37.956Z,4.22
2023-02-17T21:31:04.974Z,5.30
2023-02-17T21:33:31.838Z,5.33
2023-02-17T21:35:58.325Z,4.80
2023-02-17T21:38:24.730Z,5.03
2023-02-17T21:40:51.359Z,5.47
2023-02-17T21:43:37.996Z,5.68
2023-02-17T21:46:11.394Z,5.37
2023-02-17T21:48:38.342Z,6.35
2023-02-17T21:51:09.754Z,6.43
2023-02-17T21:53:36.869Z,7.38
2023-02-17T21:56:04.859Z,6.65
2023-02-17T21:58:32.480Z,6.47
2023-02-17T22:00:59.524Z,7.13
2023-02-17T22:03:26.694Z,7.13
2023-02-17T22:05:53.165Z,6.93
2023-02-17T22:08:19.816Z,7.88
2023-02-17T22:10:46.321Z,9.17
2023-02-17T22:13:12.713Z,8.57
2023-02-17T22:15:39.239Z,7.63
2023-02-17T22:18:05.774Z,7.30
2023-02-17T22:20:32.400Z,8.52
2023-02-17T22:22:58.858Z,7.77
2023-02-17T22:25:25.813Z,7.90
2023-02-17T22:27:52.314Z,8.07
2023-02-17T22:30:18.821Z,7.90
2023-02-17T22:32:45.317Z,8.13
2023-02-17T22:35:12.386Z,8.00
2023-02-17T22:37:38.763Z,8.23
2023-02-17T22:40:07.798Z,8.35
2023-02-17T22:42:34.211Z,7.25
2023-02-17T22:45:00.702Z,8.10
2023-02-17T22:47:27.193Z,7.93
2023-02-17T22:49:53.665Z,8.55
2023-02-17T22:52:20.089Z,7.75
2023-02-17T22:54:46.670Z,8.63
2023-02-17T22:57:13.170Z,7.85
2023-02-17T22:59:39.695Z,7.90
2023-02-17T23:02:06.124Z,8.65
2023-02-17T23:04:32.539Z,8.77
2023-02-17T23:06:59.182Z,8.45
2023-02-17T23:09:25.629Z,8.18
2023-02-17T23:11:54.992Z,9.60
2023-02-17T23:14:28.468Z,8.52
2023-02-17T23:16:58.798Z,9.00
2023-02-17T23:19:25.998Z,9.45
2023-02-17T23:21:55.784Z,8.68
2023-02-17T23:24:23.319Z,7.63
2023-02-17T23:26:50.765Z,8.65
2023-02-17T23:29:17.531Z,9.20
2023-02-17T23:31:44.377Z,8.18
2023-02-17T23:34:24.443Z,9.80
2023-02-17T23:36:51.075Z,9.37
2023-02-17T23:39:17.453Z,9.40
2023-02-17T23:41:46.894Z,9.60
2023-02-17T23:44:14.599Z,9.38
2023-02-17T23:49:22.904Z,10.50
2023-02-17T23:52:02.916Z,11.45
2023-02-17T23:54:29.521Z,10.82
2023-02-17T23:59:46.676Z,11.63
